Time;durP1;ratioP1;P1;durP2;ratioP2;P2;SDS_P1;SDS_P2;PMS_P1;PMS_P2;Temp;Humidity;BMP_temperature;BMP_pressure;BME280_temperature;BME280_humidity;BME280_pressure;Samples;Min_cycle;Max_cycle;Signal;HPM_P1;HPM_P2
2021/12/29 00:01:27;;;;;;;44.03;17.37;;;;;;;;;;4935893;29;20206;-80
2021/12/29 00:03:56;;;;;;;47.03;14.13;;;;;;;;;;4936132;29;20645;-80
2021/12/29 00:06:24;;;;;;;50.37;15.90;;;;;;;;;;4936237;29;20259;-80
2021/12/29 00:08:51;;;;;;;51.40;16.70;;;;;;;;;;4935712;29;20206;-80
2021/12/29 00:11:18;;;;;;;71.20;18.53;;;;;;;;;;4935693;29;20262;-80
2021/12/29 00:13:45;;;;;;;67.83;16.37;;;;;;;;;;4935725;29;20213;-80
2021/12/29 00:16:13;;;;;;;114.23;24.40;;;;;;;;;;4935553;29;20238;-80
2021/12/29 00:18:40;;;;;;;53.13;18.17;;;;;;;;;;4935592;29;20291;-81
2021/12/29 00:21:09;;;;;;;66.53;14.97;;;;;;;;;;4935552;29;20301;-80
2021/12/29 00:23:36;;;;;;;42.80;10.30;;;;;;;;;;4935480;29;20245;-80
2021/12/29 00:26:04;;;;;;;75.13;20.67;;;;;;;;;;4935945;29;20203;-81
2021/12/29 00:28:31;;;;;;;49.13;13.77;;;;;;;;;;4935434;29;20223;-81
2021/12/29 00:31:00;;;;;;;25.27;10.13;;;;;;;;;;4934875;29;20698;-80
2021/12/29 00:33:27;;;;;;;38.87;13.80;;;;;;;;;;4935634;29;20616;-80
2021/12/29 00:35:55;;;;;;;53.23;16.37;;;;;;;;;;4935336;29;20199;-80
2021/12/29 00:38:24;;;;;;;26.47;12.37;;;;;;;;;;4935177;29;20237;-81
2021/12/29 00:40:51;;;;;;;31.57;16.20;;;;;;;;;;4935403;29;20221;-80
2021/12/29 00:43:18;;;;;;;58.90;27.07;;;;;;;;;;4935361;29;20202;-80
2021/12/29 00:45:47;;;;;;;23.93;19.00;;;;;;;;;;4935225;29;20233;-80
2021/12/29 00:48:15;;;;;;;42.20;30.03;;;;;;;;;;4935404;29;20671;-81
2021/12/29 00:50:43;;;;;;;18.40;14.30;;;;;;;;;;4935194;29;20210;-80
2021/12/29 00:53:10;;;;;;;28.33;14.47;;;;;;;;;;4934999;29;20210;-80
2021/12/29 00:55:39;;;;;;;19.03;13.23;;;;;;;;;;4935174;29;20262;-81
2021/12/29 00:58:08;;;;;;;17.80;11.53;;;;;;;;;;4934621;29;20317;-80
2021/12/29 01:00:40;;;;;;;20.07;11.83;;;;;;;;;;4935148;29;20210;-80
2021/12/29 01:03:08;;;;;;;26.27;12.27;;;;;;;;;;4935367;29;20191;-80
2021/12/29 01:05:36;;;;;;;27.40;10.93;;;;;;;;;;4934680;29;20206;-80
2021/12/29 01:08:03;;;;;;;16.23;7.97;;;;;;;;;;4934899;29;20293;-81
2021/12/29 01:10:30;;;;;;;31.67;9.60;;;;;;;;;;4934869;29;20347;-81
2021/12/29 01:13:02;;;;;;;46.97;13.87;;;;;;;;;;4934791;29;20199;-81
2021/12/29 01:15:33;;;;;;;18.07;13.13;;;;;;;;;;4934894;29;20202;-81
2021/12/29 01:18:02;;;;;;;17.83;13.40;;;;;;;;;;4934867;29;20210;-80
2021/12/29 01:20:30;;;;;;;20.80;12.97;;;;;;;;;;4934722;29;20293;-81
2021/12/29 01:22:58;;;;;;;18.63;9.17;;;;;;;;;;4934567;29;20234;-81
2021/12/29 01:25:26;;;;;;;23.50;9.20;;;;;;;;;;4934819;29;20209;-81
2021/12/29 01:27:54;;;;;;;20.67;10.63;;;;;;;;;;4934743;29;20293;-82
2021/12/29 01:30:23;;;;;;;19.70;8.10;;;;;;;;;;4934664;29;20198;-82
2021/12/29 01:32:50;;;;;;;11.33;7.17;;;;;;;;;;4934705;29;20233;-81
2021/12/29 01:35:17;;;;;;;99.67;19.73;;;;;;;;;;4934577;29;20209;-81
2021/12/29 01:37:45;;;;;;;100.23;18.83;;;;;;;;;;4934692;29;20297;-81
2021/12/29 01:40:17;;;;;;;40.10;10.43;;;;;;;;;;4935224;29;20580;-81
2021/12/29 01:42:44;;;;;;;45.50;11.67;;;;;;;;;;4934629;29;20222;-81
2021/12/29 01:45:12;;;;;;;24.83;8.77;;;;;;;;;;4934108;29;20242;-81
2021/12/29 01:47:42;;;;;;;8.47;5.17;;;;;;;;;;4934530;29;20206;-81
2021/12/29 01:50:11;;;;;;;6.17;5.33;;;;;;;;;;4934503;29;20209;-81
2021/12/29 01:52:40;;;;;;;5.07;4.60;;;;;;;;;;4934497;29;20245;-81
2021/12/29 01:55:09;;;;;;;37.40;8.53;;;;;;;;;;4934689;29;20209;-81
2021/12/29 01:57:36;;;;;;;70.70;16.37;;;;;;;;;;4934442;29;20290;-82
2021/12/29 02:00:07;;;;;;;18.63;6.60;;;;;;;;;;4934638;29;20301;-81
2021/12/29 02:02:34;;;;;;;26.93;7.43;;;;;;;;;;4934798;29;20299;-81
2021/12/29 02:05:03;;;;;;;14.10;6.80;;;;;;;;;;4937412;29;20210;-81
2021/12/29 02:07:30;;;;;;;7.30;4.50;;;;;;;;;;4937993;29;20585;-82
2021/12/29 02:09:58;;;;;;;5.07;4.27;;;;;;;;;;4938436;29;20684;-82
2021/12/29 02:12:25;;;;;;;3.47;3.17;;;;;;;;;;4937962;29;20198;-81
2021/12/29 02:14:53;;;;;;;3.63;3.33;;;;;;;;;;4938076;29;20206;-81
2021/12/29 02:17:20;;;;;;;3.87;3.57;;;;;;;;;;4937787;29;20202;-81
2021/12/29 02:19:48;;;;;;;3.60;2.97;;;;;;;;;;4937732;29;20316;-81
2021/12/29 02:22:32;;;;;;;3.73;3.37;;;;;;;;;;4937661;29;20238;-81
2021/12/29 02:25:19;;;;;;;10.90;4.93;;;;;;;;;;4937868;29;20246;-80
2021/12/29 02:27:47;;;;;;;65.20;12.47;;;;;;;;;;4937676;29;20195;-81
2021/12/29 02:30:15;;;;;;;152.53;20.73;;;;;;;;;;4937565;29;20238;-81
2021/12/29 02:32:43;;;;;;;19.30;5.53;;;;;;;;;;4937587;29;20198;-81
2021/12/29 02:35:11;;;;;;;55.73;11.40;;;;;;;;;;4937568;29;20206;-81
2021/12/29 02:37:40;;;;;;;76.87;16.17;;;;;;;;;;4937329;29;20274;-81
2021/12/29 02:40:09;;;;;;;33.17;8.03;;;;;;;;;;4937295;29;20686;-81
2021/12/29 02:42:40;;;;;;;22.37;6.80;;;;;;;;;;4937596;29;20643;-81
2021/12/29 02:45:10;;;;;;;11.03;4.47;;;;;;;;;;4937432;29;20261;-81
2021/12/29 02:47:38;;;;;;;7.87;4.87;;;;;;;;;;4937492;29;20198;-80
2021/12/29 02:50:06;;;;;;;5.87;5.27;;;;;;;;;;4937204;29;20203;-81
2021/12/29 02:52:33;;;;;;;13.13;6.63;;;;;;;;;;4937149;29;20261;-80
2021/12/29 02:55:02;;;;;;;6.47;5.80;;;;;;;;;;4937179;29;20715;-80
2021/12/29 02:57:30;;;;;;;11.30;7.30;;;;;;;;;;4937121;29;20255;-80
2021/12/29 02:59:57;;;;;;;17.10;8.17;;;;;;;;;;4936916;29;20278;-80
2021/12/29 03:02:24;;;;;;;9.97;6.50;;;;;;;;;;4936920;29;20234;-82
2021/12/29 03:04:52;;;;;;;9.13;6.83;;;;;;;;;;4933707;29;20241;-83
2021/12/29 03:07:19;;;;;;;19.20;10.27;;;;;;;;;;4936910;29;20198;-82
2021/12/29 03:09:46;;;;;;;34.30;9.87;;;;;;;;;;4937013;29;20591;-82
2021/12/29 03:12:15;;;;;;;15.37;6.10;;;;;;;;;;4936768;29;20246;-82
2021/12/29 03:14:51;;;;;;;5.57;5.07;;;;;;;;;;4935761;29;20674;-81
2021/12/29 03:17:19;;;;;;;4.97;4.00;;;;;;;;;;4936951;29;20194;-81
2021/12/29 03:19:47;;;;;;;5.30;4.80;;;;;;;;;;4936999;29;20704;-82
2021/12/29 03:22:14;;;;;;;5.00;4.50;;;;;;;;;;4936576;29;20239;-83
2021/12/29 03:24:42;;;;;;;4.03;3.63;;;;;;;;;;4936524;29;20213;-81
2021/12/29 03:27:09;;;;;;;4.53;4.13;;;;;;;;;;4936449;29;20202;-80
2021/12/29 03:29:38;;;;;;;7.60;4.73;;;;;;;;;;4936698;29;20203;-81
2021/12/29 03:32:09;;;;;;;4.87;3.93;;;;;;;;;;4934250;29;20553;-83
2021/12/29 03:34:36;;;;;;;3.50;3.20;;;;;;;;;;4936326;29;20230;-82
2021/12/29 03:37:04;;;;;;;2.97;2.77;;;;;;;;;;4936608;29;20241;-81
2021/12/29 03:39:38;;;;;;;3.50;3.20;;;;;;;;;;4935935;29;20234;-80
2021/12/29 03:42:06;;;;;;;4.10;3.70;;;;;;;;;;4936417;29;20275;-81
2021/12/29 03:44:33;;;;;;;3.50;3.20;;;;;;;;;;4936312;29;20209;-80
2021/12/29 03:47:02;;;;;;;3.80;3.40;;;;;;;;;;4936131;29;20293;-80
2021/12/29 03:49:33;;;;;;;4.67;3.83;;;;;;;;;;4945308;29;20212;-82
2021/12/29 03:52:00;;;;;;;5.37;4.10;;;;;;;;;;4955318;28;20745;-81
2021/12/29 03:54:27;;;;;;;4.27;3.30;;;;;;;;;;4947626;29;20210;-80
2021/12/29 03:56:54;;;;;;;5.10;3.40;;;;;;;;;;4936229;29;20244;-81
2021/12/29 03:59:22;;;;;;;3.57;3.27;;;;;;;;;;4935989;29;20611;-80
2021/12/29 04:01:52;;;;;;;3.00;2.70;;;;;;;;;;4935475;29;20199;-80
2021/12/29 04:04:21;;;;;;;3.20;3.00;;;;;;;;;;4935901;29;20199;-81
2021/12/29 04:06:49;;;;;;;3.37;2.67;;;;;;;;;;4936031;29;20637;-80
2021/12/29 04:09:16;;;;;;;3.53;3.23;;;;;;;;;;4935979;29;20203;-80
2021/12/29 04:11:49;;;;;;;3.20;2.90;;;;;;;;;;4935914;29;20289;-80
2021/12/29 04:14:17;;;;;;;2.80;2.40;;;;;;;;;;4935707;29;20194;-80
2021/12/29 04:16:46;;;;;;;4.53;2.80;;;;;;;;;;4935623;29;20293;-80
2021/12/29 04:19:29;;;;;;;6.17;3.73;;;;;;;;;;4936027;29;20738;-80
2021/12/29 04:21:59;;;;;;;4.10;3.70;;;;;;;;;;4935640;29;20242;-80
2021/12/29 04:24:26;;;;;;;3.87;3.57;;;;;;;;;;4935607;29;20237;-80
2021/12/29 04:26:53;;;;;;;2.80;2.60;;;;;;;;;;4935425;29;20210;-80
2021/12/29 04:29:21;;;;;;;2.80;2.60;;;;;;;;;;4935164;29;20202;-80
2021/12/29 04:31:48;;;;;;;3.73;2.60;;;;;;;;;;4935372;29;20695;-80
2021/12/29 04:34:15;;;;;;;6.07;3.73;;;;;;;;;;4935656;29;20203;-80
2021/12/29 04:36:43;;;;;;;20.40;7.47;;;;;;;;;;4935794;29;20207;-80
2021/12/29 04:39:11;;;;;;;19.27;12.03;;;;;;;;;;4935576;29;20230;-80
2021/12/29 04:41:39;;;;;;;30.60;9.00;;;;;;;;;;4935263;29;20202;-79
2021/12/29 04:44:06;;;;;;;65.33;14.73;;;;;;;;;;4935239;29;20203;-80
2021/12/29 04:46:39;;;;;;;6.93;5.20;;;;;;;;;;4935488;29;20258;-81
2021/12/29 04:49:09;;;;;;;21.87;8.63;;;;;;;;;;4935611;29;20187;-80
2021/12/29 04:51:43;;;;;;;20.80;7.70;;;;;;;;;;4935226;29;20241;-81
2021/12/29 04:54:12;;;;;;;5.17;4.77;;;;;;;;;;4935200;29;20195;-81
2021/12/29 04:56:40;;;;;;;20.43;8.10;;;;;;;;;;4935075;29;20202;-81
2021/12/29 04:59:07;;;;;;;15.80;14.20;;;;;;;;;;4935329;29;20317;-81
2021/12/29 05:01:35;;;;;;;19.03;17.13;;;;;;;;;;4935188;29;20210;-81
2021/12/29 05:04:03;;;;;;;27.60;22.23;;;;;;;;;;4934919;29;20210;-81
2021/12/29 05:09:16;;;;;;;13.03;6.40;;;;;;;;;;4935287;29;20579;-81
2021/12/29 05:11:43;;;;;;;16.00;7.40;;;;;;;;;;4934840;29;20237;-80
2021/12/29 05:14:12;;;;;;;28.53;10.60;;;;;;;;;;4935279;29;20561;-80
2021/12/29 05:16:40;;;;;;;10.77;7.50;;;;;;;;;;4934871;29;20203;-81
2021/12/29 05:19:07;;;;;;;9.00;6.33;;;;;;;;;;4934770;29;20281;-81
2021/12/29 05:21:34;;;;;;;14.63;10.50;;;;;;;;;;4934830;29;20206;-80
2021/12/29 05:24:02;;;;;;;20.00;6.90;;;;;;;;;;4934800;29;20202;-80
2021/12/29 05:26:31;;;;;;;55.33;10.47;;;;;;;;;;4934785;29;20234;-81
2021/12/29 05:28:58;;;;;;;8.27;5.37;;;;;;;;;;4934739;29;20582;-81
2021/12/29 05:31:26;;;;;;;12.13;6.27;;;;;;;;;;4934635;29;20206;-81
2021/12/29 05:33:54;;;;;;;48.13;8.73;;;;;;;;;;4934796;29;20199;-80
2021/12/29 05:36:21;;;;;;;6.30;5.70;;;;;;;;;;4934666;29;20199;-80
2021/12/29 05:38:49;;;;;;;11.90;7.47;;;;;;;;;;4936365;29;20647;-81
2021/12/29 05:41:16;;;;;;;23.50;16.83;;;;;;;;;;4938459;29;20207;-80
2021/12/29 05:43:45;;;;;;;24.40;13.93;;;;;;;;;;4938506;29;20209;-81
2021/12/29 05:46:13;;;;;;;36.83;10.47;;;;;;;;;;4938291;29;20648;-81
2021/12/29 05:48:40;;;;;;;6.30;5.70;;;;;;;;;;4938673;29;20281;-81
2021/12/29 05:51:08;;;;;;;13.30;5.90;;;;;;;;;;4938256;29;20234;-80
2021/12/29 05:53:35;;;;;;;9.03;6.87;;;;;;;;;;4938586;29;20199;-81
2021/12/29 05:56:02;;;;;;;8.27;6.00;;;;;;;;;;4938197;29;20740;-80
2021/12/29 05:58:30;;;;;;;7.37;5.10;;;;;;;;;;4938242;29;20285;-81
2021/12/29 06:00:58;;;;;;;7.77;4.53;;;;;;;;;;4938015;29;20262;-81
2021/12/29 06:03:26;;;;;;;7.20;3.33;;;;;;;;;;4938083;29;20739;-80
2021/12/29 06:05:53;;;;;;;5.10;3.97;;;;;;;;;;4938386;29;20228;-81
2021/12/29 06:08:21;;;;;;;11.07;4.63;;;;;;;;;;4937952;29;20667;-80
2021/12/29 06:10:48;;;;;;;9.27;5.73;;;;;;;;;;4937848;29;20672;-80
2021/12/29 06:13:16;;;;;;;7.63;5.60;;;;;;;;;;4937951;29;20207;-80
2021/12/29 06:15:43;;;;;;;5.83;4.67;;;;;;;;;;4938229;29;20210;-80
2021/12/29 06:18:12;;;;;;;4.50;3.90;;;;;;;;;;4937758;29;20203;-80
2021/12/29 06:20:40;;;;;;;6.53;4.30;;;;;;;;;;4937590;29;20231;-80
2021/12/29 06:23:12;;;;;;;11.40;4.53;;;;;;;;;;4937693;29;20242;-80
2021/12/29 06:25:40;;;;;;;6.20;4.57;;;;;;;;;;4937781;29;20195;-80
2021/12/29 06:28:07;;;;;;;5.97;3.93;;;;;;;;;;4937980;29;20232;-80
2021/12/29 06:30:35;;;;;;;9.90;5.70;;;;;;;;;;4938009;29;20226;-80
2021/12/29 06:33:02;;;;;;;8.40;6.23;;;;;;;;;;4937779;29;20213;-80
2021/12/29 06:35:31;;;;;;;20.93;5.57;;;;;;;;;;4937491;29;20299;-80
2021/12/29 06:37:58;;;;;;;14.00;5.43;;;;;;;;;;4937444;29;20676;-80
2021/12/29 06:40:26;;;;;;;7.57;5.03;;;;;;;;;;4937710;29;20234;-80
2021/12/29 06:42:53;;;;;;;7.53;5.17;;;;;;;;;;4937390;29;20241;-80
2021/12/29 06:45:20;;;;;;;10.77;4.17;;;;;;;;;;4937217;29;20202;-80
2021/12/29 06:47:48;;;;;;;9.37;5.20;;;;;;;;;;4937222;29;20246;-80
2021/12/29 06:50:15;;;;;;;7.40;6.70;;;;;;;;;;4937120;29;20258;-80
2021/12/29 06:52:44;;;;;;;15.27;5.73;;;;;;;;;;4937193;29;20242;-80
2021/12/29 06:55:11;;;;;;;11.23;7.73;;;;;;;;;;4937113;29;20199;-80
2021/12/29 06:57:39;;;;;;;31.10;13.23;;;;;;;;;;4937339;29;20207;-80
2021/12/29 07:00:08;;;;;;;82.10;11.83;;;;;;;;;;4937310;29;20236;-80
2021/12/29 07:02:35;;;;;;;43.70;7.80;;;;;;;;;;4937058;29;20198;-82
2021/12/29 07:05:02;;;;;;;20.83;7.20;;;;;;;;;;4936841;29;20198;-81
2021/12/29 07:07:30;;;;;;;8.07;6.03;;;;;;;;;;4937111;29;20202;-80
2021/12/29 07:09:58;;;;;;;15.77;6.00;;;;;;;;;;4937141;29;20199;-80
2021/12/29 07:12:26;;;;;;;8.13;4.10;;;;;;;;;;4936764;29;20580;-82
2021/12/29 07:14:53;;;;;;;5.27;3.43;;;;;;;;;;4937168;29;20350;-80
2021/12/29 07:17:20;;;;;;;5.43;4.27;;;;;;;;;;4936918;29;20206;-79
2021/12/29 07:19:48;;;;;;;3.93;3.63;;;;;;;;;;4936738;29;20694;-80
2021/12/29 07:22:15;;;;;;;30.23;11.67;;;;;;;;;;4936394;29;20301;-79
2021/12/29 07:24:43;;;;;;;65.57;14.73;;;;;;;;;;4936751;29;20698;-80
2021/12/29 07:27:11;;;;;;;23.50;8.80;;;;;;;;;;4936669;29;20641;-80
2021/12/29 07:29:39;;;;;;;10.63;4.40;;;;;;;;;;4936643;29;20242;-81
2021/12/29 07:32:07;;;;;;;14.07;8.80;;;;;;;;;;4936653;29;20202;-81
2021/12/29 07:34:34;;;;;;;7.90;7.03;;;;;;;;;;4936431;29;20238;-81
2021/12/29 07:37:01;;;;;;;10.03;5.80;;;;;;;;;;4936315;29;20202;-81
2021/12/29 07:39:29;;;;;;;9.20;8.03;;;;;;;;;;4936292;29;20581;-80
2021/12/29 07:41:56;;;;;;;6.77;5.23;;;;;;;;;;4936368;29;20199;-81
2021/12/29 07:44:27;;;;;;;7.17;5.67;;;;;;;;;;4936279;29;20246;-81
2021/12/29 07:46:57;;;;;;;5.10;4.53;;;;;;;;;;4936613;29;20191;-81
2021/12/29 07:49:25;;;;;;;3.70;3.23;;;;;;;;;;4935977;29;20234;-80
2021/12/29 07:51:53;;;;;;;4.87;3.57;;;;;;;;;;4936804;29;20203;-80
2021/12/29 07:54:21;;;;;;;8.10;3.60;;;;;;;;;;4936114;29;20303;-80
2021/12/29 07:56:49;;;;;;;4.00;3.70;;;;;;;;;;4936174;29;20205;-80
2021/12/29 07:59:18;;;;;;;3.30;2.97;;;;;;;;;;4936251;29;20234;-80
2021/12/29 08:01:47;;;;;;;3.10;2.90;;;;;;;;;;4935411;29;20230;-80
2021/12/29 08:04:15;;;;;;;10.60;3.70;;;;;;;;;;4935940;29;20617;-80
2021/12/29 08:06:43;;;;;;;9.37;4.47;;;;;;;;;;4935998;29;20327;-80
2021/12/29 08:09:11;;;;;;;3.73;2.80;;;;;;;;;;4935875;29;20293;-80
2021/12/29 08:11:38;;;;;;;5.43;4.23;;;;;;;;;;4935744;29;20254;-81
2021/12/29 08:14:05;;;;;;;5.40;4.90;;;;;;;;;;4936083;29;20207;-80
2021/12/29 08:16:33;;;;;;;4.43;4.03;;;;;;;;;;4936002;29;20229;-80
2021/12/29 08:19:02;;;;;;;5.17;4.67;;;;;;;;;;4935890;29;20203;-80
2021/12/29 08:21:29;;;;;;;3.97;3.67;;;;;;;;;;4935257;29;20727;-80
2021/12/29 08:23:56;;;;;;;4.00;3.70;;;;;;;;;;4935611;29;20715;-81
2021/12/29 08:26:24;;;;;;;2.67;2.47;;;;;;;;;;4935719;29;20238;-81
2021/12/29 08:28:51;;;;;;;2.77;2.57;;;;;;;;;;4935783;29;20277;-81
2021/12/29 08:31:19;;;;;;;2.87;2.63;;;;;;;;;;4935704;29;20677;-82
2021/12/29 08:33:46;;;;;;;2.60;2.40;;;;;;;;;;4935431;29;20199;-82
2021/12/29 08:36:15;;;;;;;1.70;1.60;;;;;;;;;;4935549;29;20203;-80
2021/12/29 08:38:45;;;;;;;2.03;1.83;;;;;;;;;;4935197;29;20739;-82
2021/12/29 08:41:12;;;;;;;3.60;3.30;;;;;;;;;;4935177;29;20226;-79
2021/12/29 08:43:40;;;;;;;4.87;4.37;;;;;;;;;;4935282;29;20298;-79
2021/12/29 08:46:08;;;;;;;4.80;4.40;;;;;;;;;;4934968;29;20639;-80
2021/12/29 08:48:37;;;;;;;2.70;2.50;;;;;;;;;;4935519;29;20590;-80
2021/12/29 08:51:04;;;;;;;2.13;2.03;;;;;;;;;;4935429;29;20206;-80
2021/12/29 08:53:33;;;;;;;2.30;2.10;;;;;;;;;;4935256;29;20204;-80
2021/12/29 08:56:00;;;;;;;4.97;4.57;;;;;;;;;;4935373;29;20202;-80
2021/12/29 08:58:28;;;;;;;5.60;5.03;;;;;;;;;;4935123;29;20665;-80
2021/12/29 09:00:56;;;;;;;1.50;1.40;;;;;;;;;;4935100;29;20266;-79
2021/12/29 09:03:23;;;;;;;1.43;1.33;;;;;;;;;;4935378;29;20220;-80
2021/12/29 09:05:51;;;;;;;3.53;2.57;;;;;;;;;;4934966;29;20289;-79
2021/12/29 09:08:18;;;;;;;2.57;2.37;;;;;;;;;;4935251;29;20203;-80
2021/12/29 09:10:47;;;;;;;2.50;2.30;;;;;;;;;;4934972;29;20696;-79
2021/12/29 09:13:15;;;;;;;1.90;1.80;;;;;;;;;;4934900;29;20293;-79
2021/12/29 09:15:43;;;;;;;2.23;1.30;;;;;;;;;;4934969;29;20257;-79
2021/12/29 09:18:10;;;;;;;1.33;1.23;;;;;;;;;;4934916;29;20209;-80
2021/12/29 09:20:44;;;;;;;2.00;1.90;;;;;;;;;;4935084;29;20634;-80
2021/12/29 09:23:13;;;;;;;3.07;2.87;;;;;;;;;;4934905;29;20226;-80
2021/12/29 09:25:43;;;;;;;1.70;1.60;;;;;;;;;;4935049;29;20205;-80
2021/12/29 09:28:13;;;;;;;1.80;1.70;;;;;;;;;;4934896;29;20195;-80
2021/12/29 09:30:43;;;;;;;3.23;2.70;;;;;;;;;;4935124;29;20648;-81
2021/12/29 09:33:11;;;;;;;11.10;7.13;;;;;;;;;;4934843;29;20199;-80
2021/12/29 09:35:39;;;;;;;2.37;2.27;;;;;;;;;;4934825;29;20198;-80
2021/12/29 09:38:07;;;;;;;3.03;2.83;;;;;;;;;;4935210;29;20202;-80
2021/12/29 09:40:35;;;;;;;2.30;2.17;;;;;;;;;;4934639;29;20739;-80
2021/12/29 09:43:03;;;;;;;1.93;1.83;;;;;;;;;;4934915;29;20199;-80
2021/12/29 09:45:32;;;;;;;1.90;1.80;;;;;;;;;;4935198;29;20254;-80
2021/12/29 09:47:59;;;;;;;2.53;2.40;;;;;;;;;;4934548;29;20210;-80
2021/12/29 09:50:27;;;;;;;2.20;2.10;;;;;;;;;;4935040;29;20230;-81
2021/12/29 09:52:55;;;;;;;2.03;1.70;;;;;;;;;;4935182;29;20691;-81
2021/12/29 09:55:24;;;;;;;1.90;1.80;;;;;;;;;;4935029;29;20214;-81
2021/12/29 09:57:53;;;;;;;2.97;2.77;;;;;;;;;;4934683;29;20199;-81
2021/12/29 10:00:24;;;;;;;2.07;1.97;;;;;;;;;;4934390;29;20668;-80
2021/12/29 10:02:53;;;;;;;2.30;2.10;;;;;;;;;;4935024;29;20674;-80
2021/12/29 10:05:21;;;;;;;2.37;2.20;;;;;;;;;;4934731;29;20221;-80
2021/12/29 10:07:58;;;;;;;2.50;2.30;;;;;;;;;;4934926;29;20206;-80
2021/12/29 10:10:25;;;;;;;1.80;1.70;;;;;;;;;;4934491;29;20193;-81
2021/12/29 10:12:53;;;;;;;3.07;2.77;;;;;;;;;;4934560;29;20207;-80
2021/12/29 10:15:20;;;;;;;3.33;3.13;;;;;;;;;;4934304;29;20213;-80
2021/12/29 10:17:47;;;;;;;2.80;2.60;;;;;;;;;;4934367;29;20199;-80
2021/12/29 10:20:18;;;;;;;3.03;2.83;;;;;;;;;;4934760;29;20633;-81
2021/12/29 10:22:56;;;;;;;2.77;2.50;;;;;;;;;;4934294;29;20234;-80
2021/12/29 10:25:24;;;;;;;29.87;26.63;;;;;;;;;;4936992;29;20194;-81
2021/12/29 10:27:52;;;;;;;16.37;14.87;;;;;;;;;;4937504;29;20702;-81
2021/12/29 10:30:22;;;;;;;3.23;3.03;;;;;;;;;;4937577;29;20205;-81
2021/12/29 10:32:49;;;;;;;2.30;2.20;;;;;;;;;;4936688;29;20198;-81
2021/12/29 10:35:26;;;;;;;1.60;1.50;;;;;;;;;;4937978;29;20202;-81
2021/12/29 10:37:55;;;;;;;1.90;1.80;;;;;;;;;;4937987;29;20273;-81
2021/12/29 10:40:28;;;;;;;1.70;1.60;;;;;;;;;;4937739;29;20676;-81
2021/12/29 10:42:57;;;;;;;1.50;1.30;;;;;;;;;;4937376;29;20298;-81
2021/12/29 10:45:32;;;;;;;1.60;1.50;;;;;;;;;;4937592;29;20210;-81
2021/12/29 10:48:00;;;;;;;2.10;2.00;;;;;;;;;;4937862;29;20285;-81
2021/12/29 10:50:29;;;;;;;1.87;1.77;;;;;;;;;;4937326;29;20607;-81
2021/12/29 10:52:58;;;;;;;2.27;2.00;;;;;;;;;;4937410;29;20211;-81
2021/12/29 10:55:32;;;;;;;1.90;1.80;;;;;;;;;;4937399;29;20388;-81
2021/12/29 10:58:06;;;;;;;2.40;2.20;;;;;;;;;;4937589;29;20241;-81
2021/12/29 11:00:34;;;;;;;4.00;3.70;;;;;;;;;;4937498;29;20190;-81
2021/12/29 11:03:09;;;;;;;2.00;1.90;;;;;;;;;;4937443;29;20210;-81
2021/12/29 11:05:40;;;;;;;2.43;2.23;;;;;;;;;;4937172;29;20197;-81
2021/12/29 11:08:09;;;;;;;2.40;2.20;;;;;;;;;;4937647;29;20226;-81
2021/12/29 11:10:36;;;;;;;1.90;1.80;;;;;;;;;;4937267;29;20221;-80
2021/12/29 11:13:04;;;;;;;3.20;2.80;;;;;;;;;;4936976;29;20297;-81
2021/12/29 11:15:33;;;;;;;3.53;3.23;;;;;;;;;;4937306;29;20234;-81
2021/12/29 11:18:04;;;;;;;3.17;2.87;;;;;;;;;;4936990;29;20209;-80
2021/12/29 11:20:32;;;;;;;3.00;2.70;;;;;;;;;;4936927;29;20670;-80
2021/12/29 11:23:08;;;;;;;3.63;3.33;;;;;;;;;;4936730;29;20301;-81
2021/12/29 11:25:37;;;;;;;2.30;2.10;;;;;;;;;;4936636;29;20581;-80
2021/12/29 11:28:05;;;;;;;3.30;3.00;;;;;;;;;;4936915;29;20240;-81
2021/12/29 11:30:32;;;;;;;2.53;2.33;;;;;;;;;;4936683;29;20209;-81
2021/12/29 11:33:08;;;;;;;2.40;2.30;;;;;;;;;;4936448;29;20290;-81
2021/12/29 11:35:40;;;;;;;2.30;2.10;;;;;;;;;;4935810;29;20274;-82
2021/12/29 11:38:10;;;;;;;2.20;2.00;;;;;;;;;;4936692;29;20199;-81
2021/12/29 11:40:40;;;;;;;3.57;3.27;;;;;;;;;;4937150;29;20309;-82
2021/12/29 11:43:08;;;;;;;3.87;3.57;;;;;;;;;;4936345;29;20695;-82
2021/12/29 11:45:36;;;;;;;3.27;3.03;;;;;;;;;;4936481;29;20213;-82
2021/12/29 11:48:04;;;;;;;3.27;3.07;;;;;;;;;;4936423;29;20801;-81
2021/12/29 11:50:34;;;;;;;3.80;3.50;;;;;;;;;;4936194;29;20222;-82
2021/12/29 11:53:13;;;;;;;4.53;3.57;;;;;;;;;;4936266;29;20198;-82
2021/12/29 11:55:44;;;;;;;5.10;4.53;;;;;;;;;;4936013;29;20569;-81
2021/12/29 11:58:13;;;;;;;4.97;4.47;;;;;;;;;;4936171;29;20672;-82
2021/12/29 12:00:41;;;;;;;4.10;3.80;;;;;;;;;;4936424;29;20198;-82
2021/12/29 12:03:12;;;;;;;3.53;3.23;;;;;;;;;;4935975;29;20226;-82
2021/12/29 12:05:41;;;;;;;3.20;3.00;;;;;;;;;;4935953;29;20596;-81
2021/12/29 12:08:12;;;;;;;3.10;2.90;;;;;;;;;;4936083;29;20637;-81
2021/12/29 12:10:41;;;;;;;3.53;3.23;;;;;;;;;;4935821;29;20194;-81
2021/12/29 12:13:23;;;;;;;3.27;3.07;;;;;;;;;;4936238;29;20199;-81
2021/12/29 12:15:51;;;;;;;2.70;2.50;;;;;;;;;;4936083;29;20254;-81
2021/12/29 12:18:19;;;;;;;2.77;2.57;;;;;;;;;;4935809;29;20202;-81
2021/12/29 12:20:48;;;;;;;3.03;2.83;;;;;;;;;;4936101;29;20248;-81
2021/12/29 12:23:34;;;;;;;2.77;2.57;;;;;;;;;;4935507;29;20736;-81
2021/12/29 12:26:09;;;;;;;2.90;2.70;;;;;;;;;;4935573;29;20242;-81
2021/12/29 12:28:44;;;;;;;3.60;3.30;;;;;;;;;;4936114;29;20217;-81
2021/12/29 12:31:22;;;;;;;3.30;3.10;;;;;;;;;;4935730;29;20190;-81
2021/12/29 12:33:49;;;;;;;5.00;4.60;;;;;;;;;;4935633;29;20277;-82
2021/12/29 12:36:16;;;;;;;5.10;4.60;;;;;;;;;;4935673;29;20646;-81
2021/12/29 12:38:47;;;;;;;8.80;8.00;;;;;;;;;;4935848;29;20233;-82
2021/12/29 12:41:16;;;;;;;8.40;7.70;;;;;;;;;;4935382;29;20241;-82
2021/12/29 12:43:52;;;;;;;22.43;18.43;;;;;;;;;;4935428;29;20209;-82
2021/12/29 12:46:30;;;;;;;27.63;23.30;;;;;;;;;;4935614;29;20257;-82
2021/12/29 12:48:58;;;;;;;37.00;29.13;;;;;;;;;;4935469;29;20277;-81
2021/12/29 12:51:25;;;;;;;69.03;52.97;;;;;;;;;;4935231;29;20198;-81
2021/12/29 12:53:54;;;;;;;27.47;24.03;;;;;;;;;;4935495;29;20202;-81
2021/12/29 12:56:23;;;;;;;10.20;9.27;;;;;;;;;;4935358;29;20199;-81
2021/12/29 12:58:52;;;;;;;9.37;8.47;;;;;;;;;;4935208;29;20570;-80
2021/12/29 13:01:23;;;;;;;6.53;6.03;;;;;;;;;;4935087;29;20257;-81
2021/12/29 13:03:51;;;;;;;7.47;6.87;;;;;;;;;;4935059;29;20195;-81
2021/12/29 13:06:22;;;;;;;9.37;8.57;;;;;;;;;;4935069;29;20198;-81
2021/12/29 13:08:50;;;;;;;6.23;5.80;;;;;;;;;;4935434;29;20201;-81
2021/12/29 13:11:21;;;;;;;4.97;4.47;;;;;;;;;;4935438;29;20206;-81
2021/12/29 13:13:51;;;;;;;10.93;9.90;;;;;;;;;;4935276;29;20198;-81
2021/12/29 13:16:20;;;;;;;14.03;12.83;;;;;;;;;;4935118;29;20258;-81
2021/12/29 13:18:47;;;;;;;11.87;10.87;;;;;;;;;;4935183;29;20206;-81
2021/12/29 13:21:17;;;;;;;5.93;5.50;;;;;;;;;;4934789;29;20198;-82
2021/12/29 13:23:46;;;;;;;4.00;3.70;;;;;;;;;;4934783;29;20314;-82
2021/12/29 13:26:14;;;;;;;4.63;4.23;;;;;;;;;;4934828;29;20302;-83
2021/12/29 13:28:43;;;;;;;5.17;4.70;;;;;;;;;;4934790;29;20254;-82
2021/12/29 13:31:14;;;;;;;8.33;7.53;;;;;;;;;;4934854;29;20257;-82
2021/12/29 13:33:43;;;;;;;10.07;9.10;;;;;;;;;;4935107;29;20215;-82
2021/12/29 13:36:12;;;;;;;9.50;8.57;;;;;;;;;;4934956;29;20249;-82
2021/12/29 13:38:40;;;;;;;6.90;6.30;;;;;;;;;;4934944;29;20202;-82
2021/12/29 13:41:11;;;;;;;5.50;5.00;;;;;;;;;;4934976;29;20759;-82
2021/12/29 13:43:40;;;;;;;5.27;4.77;;;;;;;;;;4934995;29;20305;-82
2021/12/29 13:46:11;;;;;;;7.87;7.17;;;;;;;;;;4934516;29;20246;-82
2021/12/29 13:48:40;;;;;;;5.53;5.03;;;;;;;;;;4934994;29;20281;-82
2021/12/29 13:51:09;;;;;;;4.27;3.97;;;;;;;;;;4934770;29;20198;-83
2021/12/29 13:53:39;;;;;;;5.57;5.13;;;;;;;;;;4934746;29;20203;-82
2021/12/29 13:56:09;;;;;;;12.40;9.67;;;;;;;;;;4934559;29;20202;-83
2021/12/29 13:58:37;;;;;;;9.03;7.60;;;;;;;;;;4934592;29;20290;-83
2021/12/29 14:01:05;;;;;;;37.80;10.53;;;;;;;;;;4938210;29;20203;-83
2021/12/29 14:03:34;;;;;;;27.67;22.80;;;;;;;;;;4938198;29;20269;-82
2021/12/29 14:06:04;;;;;;;10.43;9.33;;;;;;;;;;4938284;29;20199;-83
2021/12/29 14:08:32;;;;;;;6.97;6.37;;;;;;;;;;4938366;29;20199;-83
2021/12/29 14:11:00;;;;;;;7.93;7.17;;;;;;;;;;4938133;29;20671;-83
2021/12/29 14:13:30;;;;;;;8.80;7.70;;;;;;;;;;4937964;29;20209;-83
2021/12/29 14:16:03;;;;;;;7.10;6.13;;;;;;;;;;4938281;29;20207;-83
2021/12/29 14:18:30;;;;;;;6.57;5.97;;;;;;;;;;4937977;29;20210;-82
2021/12/29 14:21:13;;;;;;;6.97;5.83;;;;;;;;;;4938175;29;20207;-83
2021/12/29 14:23:41;;;;;;;7.33;5.17;;;;;;;;;;4937582;29;20747;-83
2021/12/29 14:26:13;;;;;;;6.30;5.70;;;;;;;;;;4937957;29;20285;-83
2021/12/29 14:28:41;;;;;;;7.93;7.13;;;;;;;;;;4937698;29;20245;-82
2021/12/29 14:31:12;;;;;;;4.47;4.07;;;;;;;;;;4938049;29;20202;-83
2021/12/29 14:33:42;;;;;;;5.50;4.87;;;;;;;;;;4937696;29;20183;-83
2021/12/29 14:36:13;;;;;;;5.30;4.80;;;;;;;;;;4937973;29;20297;-83
2021/12/29 14:38:41;;;;;;;5.97;4.83;;;;;;;;;;4937767;29;20277;-83
2021/12/29 14:41:17;;;;;;;4.20;3.80;;;;;;;;;;4934257;29;20245;-83
2021/12/29 14:43:48;;;;;;;4.50;4.17;;;;;;;;;;4923340;29;20274;-83
2021/12/29 14:46:15;;;;;;;4.40;4.00;;;;;;;;;;4931294;29;20203;-83
2021/12/29 14:48:51;;;;;;;5.47;5.03;;;;;;;;;;4936918;29;20256;-83